createdAt,value
2018-05-02T00:00:49.167Z,0.00
2018-05-02T00:01:49.135Z,0.00
2018-05-02T00:02:49.093Z,0.00
2018-05-02T00:03:49.049Z,0.00
2018-05-02T00:04:49.007Z,0.00
2018-05-02T00:05:48.969Z,0.00
2018-05-02T00:06:48.904Z,0.00
2018-05-02T00:07:48.895Z,0.00
2018-05-02T00:08:48.823Z,0.00
2018-05-02T00:09:48.772Z,0.00
2018-05-02T00:10:48.724Z,0.00
2018-05-02T00:11:48.696Z,0.00
2018-05-02T00:12:48.640Z,0.00
2018-05-02T00:13:48.621Z,0.00
2018-05-02T00:14:48.595Z,0.00
2018-05-02T00:15:48.528Z,0.00
2018-05-02T00:16:48.502Z,0.00
2018-05-02T00:17:48.445Z,0.00
2018-05-02T00:18:48.374Z,0.00
2018-05-02T00:19:48.330Z,0.00
2018-05-02T00:20:48.283Z,0.00
2018-05-02T00:21:48.255Z,0.00
2018-05-02T00:22:48.231Z,0.00
2018-05-02T00:23:48.163Z,0.00
2018-05-02T00:24:48.125Z,0.00
2018-05-02T00:25:48.086Z,0.00
2018-05-02T00:26:48.047Z,0.00
2018-05-02T00:27:47.996Z,0.00
2018-05-02T00:28:47.958Z,0.00
2018-05-02T00:29:47.911Z,0.00
2018-05-02T00:30:47.853Z,0.00
2018-05-02T00:31:47.830Z,0.00
2018-05-02T00:32:47.777Z,0.00
2018-05-02T00:33:47.726Z,0.00
2018-05-02T00:34:47.699Z,0.00
2018-05-02T00:35:47.650Z,0.00
2018-05-02T00:36:47.595Z,0.00
2018-05-02T00:37:47.537Z,0.00
2018-05-02T00:38:47.500Z,0.00
2018-05-02T00:39:47.475Z,0.00
2018-05-02T00:40:47.419Z,0.00
2018-05-02T00:41:47.388Z,0.00
2018-05-02T00:42:47.330Z,0.00
2018-05-02T00:43:47.286Z,0.00
2018-05-02T00:44:47.232Z,0.00
2018-05-02T00:45:47.224Z,0.00
2018-05-02T00:46:47.180Z,0.00
2018-05-02T00:47:47.122Z,0.00
2018-05-02T00:48:47.089Z,0.00
2018-05-02T00:49:47.009Z,0.00
2018-05-02T00:50:46.975Z,0.00
2018-05-02T00:51:46.953Z,0.00
2018-05-02T00:52:46.902Z,0.00
2018-05-02T00:53:46.877Z,0.00
2018-05-02T00:54:46.810Z,0.00
2018-05-02T00:55:46.750Z,0.00
2018-05-02T00:56:46.714Z,0.00
2018-05-02T00:57:46.669Z,0.00
2018-05-02T00:58:46.618Z,0.00
2018-05-02T00:59:46.585Z,0.00
2018-05-02T01:00:46.563Z,0.00
2018-05-02T01:01:46.495Z,0.00
2018-05-02T01:02:46.471Z,0.00
2018-05-02T01:03:46.413Z,0.00
2018-05-02T01:04:46.389Z,0.00
2018-05-02T01:05:46.317Z,0.00
2018-05-02T01:06:46.285Z,0.00
2018-05-02T01:07:46.227Z,0.00
2018-05-02T01:08:46.178Z,0.00
2018-05-02T01:09:46.149Z,0.00
2018-05-02T01:10:46.095Z,0.00
2018-05-02T01:11:46.053Z,0.00
2018-05-02T01:12:46.017Z,0.00
2018-05-02T01:13:45.966Z,0.00
2018-05-02T01:14:45.908Z,0.00
2018-05-02T01:15:45.883Z,0.00
2018-05-02T01:16:45.833Z,0.00
2018-05-02T01:17:45.795Z,0.00
2018-05-02T01:18:45.746Z,0.00
2018-05-02T01:19:45.714Z,0.00
2018-05-02T01:20:45.720Z,0.00
2018-05-02T01:21:45.605Z,0.00
2018-05-02T01:22:45.578Z,0.00
2018-05-02T01:23:45.508Z,0.00
2018-05-02T01:24:45.493Z,0.00
2018-05-02T01:25:45.448Z,0.00
2018-05-02T01:26:45.378Z,0.00
2018-05-02T01:27:45.347Z,0.00
2018-05-02T01:28:45.289Z,0.00
2018-05-02T01:29:45.273Z,0.00
2018-05-02T01:30:45.239Z,0.00
2018-05-02T01:31:45.187Z,0.00
2018-05-02T01:32:45.158Z,0.00
2018-05-02T01:33:45.101Z,0.00
2018-05-02T01:34:45.065Z,0.00
2018-05-02T01:35:45.023Z,0.00
2018-05-02T01:36:44.939Z,0.00
2018-05-02T01:37:44.909Z,0.00
2018-05-02T01:38:44.859Z,0.00
2018-05-02T01:39:44.828Z,0.00
2018-05-02T01:40:44.769Z,0.00
2018-05-02T01:41:44.745Z,0.00
2018-05-02T01:42:44.706Z,0.00
2018-05-02T01:43:44.659Z,0.00
2018-05-02T01:44:44.594Z,0.00
2018-05-02T01:45:44.552Z,0.00
2018-05-02T01:46:44.513Z,0.00
2018-05-02T01:47:44.466Z,0.00
2018-05-02T01:48:44.426Z,0.00
2018-05-02T01:49:44.401Z,0.00
2018-05-02T01:50:44.329Z,0.00
2018-05-02T01:51:44.279Z,0.00
2018-05-02T01:52:44.260Z,0.00
2018-05-02T01:53:44.213Z,0.00
2018-05-02T01:54:44.146Z,0.00
2018-05-02T01:55:44.134Z,0.00
2018-05-02T01:56:44.171Z,0.00
2018-05-02T01:57:44.021Z,0.00
2018-05-02T01:58:44.003Z,0.00
2018-05-02T01:59:43.967Z,0.00
2018-05-02T02:00:43.924Z,0.00
2018-05-02T02:01:43.853Z,0.00
2018-05-02T02:02:43.812Z,0.00
2018-05-02T02:03:43.777Z,0.00
2018-05-02T02:04:43.735Z,0.00
2018-05-02T02:05:43.677Z,0.00
2018-05-02T02:06:43.655Z,0.00
2018-05-02T02:07:43.574Z,0.00
2018-05-02T02:08:43.531Z,0.00
2018-05-02T02:09:43.506Z,0.00
2018-05-02T02:10:43.464Z,0.00
2018-05-02T02:11:43.418Z,0.00
2018-05-02T02:12:43.381Z,0.00
2018-05-02T02:13:43.311Z,0.00
2018-05-02T02:14:43.281Z,0.00
2018-05-02T02:15:43.251Z,0.00
2018-05-02T02:16:43.187Z,0.00
2018-05-02T02:17:43.157Z,0.00
2018-05-02T02:18:43.115Z,0.00
2018-05-02T02:19:43.073Z,0.00
2018-05-02T02:20:43.018Z,0.00
2018-05-02T02:21:42.960Z,0.00
2018-05-02T02:22:42.926Z,0.00
2018-05-02T02:23:42.907Z,0.00
2018-05-02T02:24:42.839Z,0.00
2018-05-02T02:25:42.802Z,0.00
2018-05-02T02:26:42.767Z,0.00
2018-05-02T02:27:42.708Z,0.00
2018-05-02T02:28:42.685Z,0.00
2018-05-02T02:29:42.647Z,0.00
2018-05-02T02:30:42.594Z,0.00
2018-05-02T02:31:42.530Z,0.00
2018-05-02T02:32:42.497Z,0.00
2018-05-02T02:33:42.457Z,0.00
2018-05-02T02:34:42.392Z,0.00
2018-05-02T02:35:42.357Z,0.00
2018-05-02T02:36:42.313Z,0.00
2018-05-02T02:37:42.265Z,0.00
2018-05-02T02:38:42.236Z,0.00
2018-05-02T02:39:42.177Z,0.00
2018-05-02T02:40:42.148Z,0.00
2018-05-02T02:41:42.105Z,0.00
2018-05-02T02:42:42.046Z,0.00
2018-05-02T02:43:41.989Z,0.00
2018-05-02T02:44:41.944Z,0.00
2018-05-02T02:45:41.903Z,0.00
2018-05-02T02:46:41.885Z,0.00
2018-05-02T02:47:41.813Z,0.00
2018-05-02T02:48:41.781Z,0.00
2018-05-02T02:49:41.731Z,0.00
2018-05-02T02:50:41.683Z,0.00
2018-05-02T02:51:41.655Z,0.00
2018-05-02T02:52:41.631Z,0.00
2018-05-02T02:53:41.568Z,0.00
2018-05-02T02:54:41.520Z,0.00
2018-05-02T02:55:41.460Z,0.00
2018-05-02T02:56:41.428Z,0.00
2018-05-02T02:57:41.367Z,0.00
2018-05-02T02:58:41.347Z,0.00
2018-05-02T02:59:41.296Z,0.00
2018-05-02T03:00:41.251Z,0.00
2018-05-02T03:01:41.237Z,0.00
2018-05-02T03:02:41.185Z,0.00
2018-05-02T03:03:41.120Z,0.00
2018-05-02T03:04:41.074Z,0.00
2018-05-02T03:05:41.016Z,0.00
2018-05-02T03:06:41.012Z,0.00
2018-05-02T03:07:40.947Z,0.00
2018-05-02T03:08:40.923Z,0.00
2018-05-02T03:09:40.842Z,0.00
2018-05-02T03:10:40.821Z,0.00
2018-05-02T03:11:40.790Z,0.00
2018-05-02T03:12:40.727Z,0.00
2018-05-02T03:13:40.711Z,0.00
2018-05-02T03:14:40.629Z,0.00
2018-05-02T03:15:40.590Z,0.00
2018-05-02T03:16:40.545Z,0.00
2018-05-02T03:17:40.490Z,0.00
2018-05-02T03:18:40.479Z,0.00
2018-05-02T03:19:40.410Z,0.00
2018-05-02T03:20:40.356Z,0.00
2018-05-02T03:21:40.323Z,0.00
2018-05-02T03:22:40.290Z,0.00
2018-05-02T03:23:40.248Z,0.00
2018-05-02T03:24:40.201Z,0.00
2018-05-02T03:25:40.157Z,0.00
2018-05-02T03:26:40.114Z,0.00
2018-05-02T03:27:40.072Z,0.00
2018-05-02T03:28:40.012Z,0.00
2018-05-02T03:29:39.967Z,0.00
2018-05-02T03:30:39.953Z,0.00
2018-05-02T03:31:39.901Z,0.00
2018-05-02T03:32:39.827Z,0.00
2018-05-02T03:33:39.775Z,0.00
2018-05-02T03:34:39.764Z,0.00
2018-05-02T03:35:39.738Z,0.00
2018-05-02T03:36:39.642Z,0.00
2018-05-02T03:37:39.600Z,0.00
2018-05-02T03:38:39.598Z,0.00
2018-05-02T03:39:39.537Z,0.00
2018-05-02T03:40:39.506Z,0.00
2018-05-02T03:41:39.462Z,0.00
2018-05-02T03:42:39.423Z,0.00
2018-05-02T03:43:39.375Z,0.00
2018-05-02T03:44:39.319Z,0.00
2018-05-02T03:45:39.282Z,0.00
2018-05-02T03:46:39.201Z,0.00
2018-05-02T03:47:39.163Z,0.00
2018-05-02T03:48:39.126Z,0.00
2018-05-02T03:49:39.079Z,0.00
2018-05-02T03:50:39.024Z,0.00
2018-05-02T03:51:38.991Z,0.00
2018-05-02T03:52:38.955Z,0.00
2018-05-02T03:53:38.916Z,0.00
2018-05-02T03:54:38.886Z,0.00
2018-05-02T03:55:38.825Z,0.00
2018-05-02T03:56:38.772Z,0.00
2018-05-02T03:57:38.726Z,0.00
2018-05-02T03:58:38.684Z,0.00
2018-05-02T03:59:38.731Z,0.00
2018-05-02T04:00:38.596Z,0.00
2018-05-02T04:01:38.587Z,0.00
2018-05-02T04:02:38.492Z,0.00
2018-05-02T04:03:38.447Z,0.00
2018-05-02T04:04:38.443Z,0.00
2018-05-02T04:05:38.360Z,0.00
2018-05-02T04:06:38.347Z,0.00
2018-05-02T04:07:38.295Z,0.00
2018-05-02T04:08:38.325Z,0.00
2018-05-02T04:09:38.181Z,0.00
2018-05-02T04:10:38.138Z,0.00
2018-05-02T04:11:38.124Z,0.00
2018-05-02T04:12:38.062Z,0.00
2018-05-02T04:13:38.031Z,0.00
2018-05-02T04:14:37.986Z,0.00
2018-05-02T04:15:37.952Z,0.00
2018-05-02T04:16:37.900Z,0.00
2018-05-02T04:17:37.837Z,0.00
2018-05-02T04:18:37.836Z,0.00
2018-05-02T04:19:37.766Z,0.00
2018-05-02T04:20:37.703Z,0.00
2018-05-02T04:21:37.655Z,0.00
2018-05-02T04:22:37.636Z,0.00
2018-05-02T04:23:37.588Z,0.00
2018-05-02T04:24:37.517Z,0.00
2018-05-02T04:25:37.491Z,0.00
2018-05-02T04:26:37.537Z,0.00
2018-05-02T04:27:37.413Z,0.00
2018-05-02T04:28:37.377Z,0.00
2018-05-02T04:29:37.320Z,0.00
2018-05-02T04:30:37.267Z,0.00
2018-05-02T04:31:37.233Z,0.00
2018-05-02T04:32:37.187Z,0.00
2018-05-02T04:33:37.133Z,0.00
2018-05-02T04:34:37.103Z,0.00
2018-05-02T04:35:37.071Z,0.00
2018-05-02T04:36:36.995Z,0.00
2018-05-02T04:37:36.969Z,0.00
2018-05-02T04:38:36.926Z,0.00
2018-05-02T04:39:36.862Z,0.00
2018-05-02T04:40:36.824Z,0.00
2018-05-02T04:41:36.766Z,0.00
2018-05-02T04:42:36.744Z,0.00
2018-05-02T04:43:36.691Z,0.00
2018-05-02T04:44:36.654Z,0.00
2018-05-02T04:45:36.613Z,0.00
2018-05-02T04:46:36.550Z,0.00
2018-05-02T04:47:36.527Z,0.00
2018-05-02T04:48:36.487Z,0.00
2018-05-02T04:49:36.424Z,0.00
2018-05-02T04:50:36.382Z,0.00
2018-05-02T04:51:36.322Z,0.00
2018-05-02T04:52:36.323Z,0.00
2018-05-02T04:53:36.228Z,0.00
2018-05-02T04:54:36.198Z,0.00
2018-05-02T04:55:36.168Z,0.00
2018-05-02T04:56:36.127Z,0.00
2018-05-02T04:57:36.085Z,0.00
2018-05-02T04:58:36.034Z,0.00
2018-05-02T04:59:36.067Z,0.00
2018-05-02T05:00:35.930Z,0.00
2018-05-02T05:01:35.887Z,0.00
2018-05-02T05:02:35.849Z,0.00
2018-05-02T05:03:35.805Z,0.00
2018-05-02T05:04:35.779Z,0.00
2018-05-02T05:05:35.720Z,0.00
2018-05-02T05:06:35.701Z,0.00
2018-05-02T05:07:35.638Z,0.00
2018-05-02T05:08:35.590Z,0.00
2018-05-02T05:09:35.529Z,0.00
2018-05-02T05:10:35.478Z,0.00
2018-05-02T05:11:35.476Z,0.00
2018-05-02T05:12:35.427Z,0.00
2018-05-02T05:13:35.347Z,0.00
2018-05-02T05:14:35.352Z,0.00
2018-05-02T05:15:35.299Z,0.00
2018-05-02T05:16:35.253Z,0.00
2018-05-02T05:17:35.177Z,0.00
2018-05-02T05:18:35.133Z,0.00
2018-05-02T05:19:35.094Z,0.00
2018-05-02T05:20:35.061Z,0.00
2018-05-02T05:21:35.018Z,0.00
2018-05-02T05:22:34.944Z,0.00
2018-05-02T05:23:34.943Z,0.00
2018-05-02T05:24:34.900Z,0.00
2018-05-02T05:25:34.814Z,0.00
2018-05-02T05:26:34.807Z,0.00
2018-05-02T05:27:34.732Z,0.00
2018-05-02T05:28:34.696Z,0.00
2018-05-02T05:29:34.645Z,0.00
2018-05-02T05:30:34.590Z,0.00
2018-05-02T05:31:34.571Z,0.00
2018-05-02T05:32:34.531Z,0.00
2018-05-02T05:33:34.468Z,0.00
2018-05-02T05:34:34.440Z,0.00
2018-05-02T05:35:34.396Z,0.00
2018-05-02T05:36:34.356Z,0.00
2018-05-02T05:37:34.323Z,0.00
2018-05-02T05:38:34.254Z,0.00
2018-05-02T05:39:34.221Z,0.00
2018-05-02T05:40:34.166Z,0.00
2018-05-02T05:41:34.114Z,0.00
2018-05-02T05:42:34.084Z,0.00
2018-05-02T05:43:34.097Z,0.00
2018-05-02T05:44:33.973Z,0.00
2018-05-02T05:45:33.924Z,0.00
2018-05-02T05:46:33.886Z,0.00
2018-05-02T05:47:33.866Z,0.00
2018-05-02T05:48:33.818Z,0.00
2018-05-02T05:49:33.785Z,0.00
2018-05-02T05:50:33.720Z,0.00
2018-05-02T05:51:33.690Z,0.00
2018-05-02T05:52:33.632Z,0.00
2018-05-02T05:53:33.615Z,0.00
2018-05-02T05:54:33.626Z,0.00
2018-05-02T05:55:33.527Z,0.00
2018-05-02T05:56:33.483Z,0.00
2018-05-02T05:57:33.424Z,0.00
2018-05-02T05:58:33.391Z,0.00
2018-05-02T05:59:33.317Z,0.00
2018-05-02T06:00:33.285Z,0.00
2018-05-02T06:01:33.274Z,0.00
2018-05-02T06:02:33.191Z,0.00
2018-05-02T06:03:33.129Z,0.00
2018-05-02T06:04:33.113Z,0.00
2018-05-02T06:05:33.046Z,0.00
2018-05-02T06:06:33.039Z,0.00
2018-05-02T06:07:32.968Z,0.00
2018-05-02T06:08:32.954Z,0.00
2018-05-02T06:09:32.880Z,0.00
2018-05-02T06:10:32.837Z,0.00
2018-05-02T06:11:32.777Z,0.00
2018-05-02T06:12:32.766Z,0.00
2018-05-02T06:13:32.731Z,0.00
2018-05-02T06:14:32.657Z,0.00
2018-05-02T06:15:32.597Z,0.00
2018-05-02T06:16:32.580Z,0.00
2018-05-02T06:17:32.512Z,0.00
2018-05-02T06:18:32.506Z,0.00
2018-05-02T06:19:32.445Z,0.00
2018-05-02T06:20:32.392Z,0.00
2018-05-02T06:21:32.362Z,0.00
2018-05-02T06:22:32.316Z,0.00
2018-05-02T06:23:32.264Z,0.00
2018-05-02T06:24:32.237Z,0.00
2018-05-02T06:25:32.180Z,0.00
2018-05-02T06:26:32.146Z,0.00
2018-05-02T06:27:32.067Z,0.00
2018-05-02T06:28:32.040Z,0.00
2018-05-02T06:29:31.985Z,0.00
2018-05-02T06:30:31.932Z,0.00
2018-05-02T06:31:31.898Z,0.00
2018-05-02T06:32:31.843Z,0.00
2018-05-02T06:33:31.803Z,0.00
2018-05-02T06:34:31.771Z,0.00
2018-05-02T06:35:31.726Z,0.00
2018-05-02T06:36:31.700Z,0.00
2018-05-02T06:37:31.731Z,0.00
2018-05-02T06:38:31.600Z,0.00
2018-05-02T06:39:31.561Z,0.00
2018-05-02T06:40:31.487Z,0.00
2018-05-02T06:41:31.462Z,0.00
2018-05-02T06:42:31.431Z,0.00
2018-05-02T06:43:31.539Z,0.00
2018-05-02T06:44:31.310Z,0.00
2018-05-02T06:45:31.282Z,0.00
2018-05-02T06:46:31.235Z,0.00
2018-05-02T06:47:31.196Z,0.00
2018-05-02T06:48:31.160Z,0.00
2018-05-02T06:49:31.101Z,0.00
2018-05-02T06:50:31.083Z,0.00
2018-05-02T06:51:31.025Z,0.00
2018-05-02T06:52:30.970Z,0.00
2018-05-02T06:53:30.921Z,0.00
2018-05-02T06:54:30.879Z,0.00
2018-05-02T06:55:30.842Z,0.00
2018-05-02T06:56:30.802Z,0.00
2018-05-02T06:57:30.752Z,0.00
2018-05-02T06:58:30.701Z,0.00
2018-05-02T06:59:30.692Z,0.00
2018-05-02T07:00:30.637Z,0.00
2018-05-02T07:01:30.567Z,0.00
2018-05-02T07:02:30.522Z,0.00
2018-05-02T07:03:30.492Z,0.00
2018-05-02T07:04:30.453Z,0.00
2018-05-02T07:05:30.385Z,0.00
2018-05-02T07:06:30.344Z,0.00
2018-05-02T07:07:30.315Z,0.00
2018-05-02T07:08:30.279Z,0.00
2018-05-02T07:09:30.209Z,0.00
2018-05-02T07:10:30.166Z,0.00
2018-05-02T07:11:30.141Z,0.00
2018-05-02T07:12:30.077Z,0.00
2018-05-02T07:13:30.048Z,0.00
2018-05-02T07:14:29.971Z,0.00
2018-05-02T07:15:29.927Z,0.00
2018-05-02T07:16:29.885Z,0.00
2018-05-02T07:17:29.841Z,0.00
2018-05-02T07:18:29.820Z,0.00
2018-05-02T07:19:29.783Z,0.00
2018-05-02T07:20:29.746Z,0.00
2018-05-02T07:21:29.680Z,0.00
2018-05-02T07:22:29.629Z,0.00
2018-05-02T07:23:29.609Z,0.00
2018-05-02T07:24:29.528Z,0.00
2018-05-02T07:25:29.497Z,0.00
2018-05-02T07:26:29.453Z,0.00
2018-05-02T07:27:29.420Z,0.00
2018-05-02T07:28:29.379Z,0.00
2018-05-02T07:29:29.348Z,0.00
2018-05-02T07:30:29.300Z,0.00
2018-05-02T07:31:29.236Z,0.00
2018-05-02T07:32:29.232Z,0.00
2018-05-02T07:33:29.146Z,0.00
2018-05-02T07:34:29.083Z,0.00
2018-05-02T07:35:29.032Z,0.00
2018-05-02T07:36:29.020Z,0.00
2018-05-02T07:37:28.963Z,0.00
2018-05-02T07:38:28.929Z,0.00
2018-05-02T07:39:28.856Z,0.00
2018-05-02T07:40:28.814Z,0.00
2018-05-02T07:41:28.783Z,0.00
2018-05-02T07:42:28.731Z,0.00
2018-05-02T07:43:28.707Z,0.00
2018-05-02T07:44:28.649Z,0.00
2018-05-02T07:45:28.636Z,0.00
2018-05-02T07:46:28.547Z,0.00
2018-05-02T07:47:28.533Z,0.00
2018-05-02T07:48:28.463Z,0.00
2018-05-02T07:49:28.458Z,0.00
2018-05-02T07:50:28.383Z,0.00
2018-05-02T07:51:28.350Z,0.00
2018-05-02T07:52:28.293Z,0.00
2018-05-02T07:53:28.251Z,0.00
2018-05-02T07:54:28.231Z,0.00
2018-05-02T07:55:28.171Z,0.00
2018-05-02T07:56:28.127Z,0.00
2018-05-02T07:57:28.055Z,0.00
2018-05-02T07:58:28.026Z,0.00
2018-05-02T07:59:27.986Z,0.00
2018-05-02T08:00:27.920Z,0.00
2018-05-02T08:01:27.899Z,0.00
2018-05-02T08:02:27.878Z,0.00
2018-05-02T08:03:27.790Z,0.00
2018-05-02T08:04:27.783Z,0.00
2018-05-02T08:05:27.720Z,0.00
2018-05-02T08:06:27.680Z,0.00
2018-05-02T08:07:27.656Z,0.00
2018-05-02T08:08:27.566Z,0.00
2018-05-02T08:09:27.534Z,0.00
2018-05-02T08:10:27.482Z,0.00
2018-05-02T08:11:27.471Z,0.00
2018-05-02T08:12:27.428Z,0.00
2018-05-02T08:13:27.367Z,0.00
2018-05-02T08:14:27.311Z,0.00
2018-05-02T08:15:27.293Z,0.00
2018-05-02T08:16:27.257Z,0.00
2018-05-02T08:17:27.190Z,0.00
2018-05-02T08:18:27.147Z,0.00
2018-05-02T08:19:27.101Z,0.00
2018-05-02T08:20:27.044Z,0.00
2018-05-02T08:21:26.992Z,0.00
2018-05-02T08:22:26.981Z,0.00
2018-05-02T08:23:26.896Z,0.00
2018-05-02T08:24:26.881Z,0.00
2018-05-02T08:25:26.808Z,0.00
2018-05-02T08:26:26.802Z,0.00
2018-05-02T08:27:26.732Z,0.00
2018-05-02T08:28:26.703Z,0.00
2018-05-02T08:29:26.636Z,0.00
2018-05-02T08:30:26.583Z,0.00
2018-05-02T08:31:26.553Z,0.00
2018-05-02T08:32:26.523Z,0.00
2018-05-02T08:33:26.464Z,0.00
2018-05-02T08:34:26.432Z,0.00
2018-05-02T08:35:26.362Z,0.00
2018-05-02T08:36:26.341Z,0.00
2018-05-02T08:37:26.289Z,0.00
2018-05-02T08:38:26.227Z,0.00
2018-05-02T08:39:26.207Z,0.00
2018-05-02T08:40:26.150Z,0.00
2018-05-02T08:41:26.113Z,0.00
2018-05-02T08:42:26.059Z,0.00
2018-05-02T08:43:26.025Z,0.00
2018-05-02T08:44:25.975Z,0.00
2018-05-02T08:45:25.957Z,0.00
2018-05-02T08:46:25.895Z,0.00
2018-05-02T08:47:25.852Z,0.00
2018-05-02T08:48:25.805Z,0.00
2018-05-02T08:49:25.748Z,0.00
2018-05-02T08:50:25.710Z,0.00
2018-05-02T08:51:25.661Z,0.00
2018-05-02T08:52:25.609Z,0.00
2018-05-02T08:53:25.558Z,0.00
2018-05-02T08:54:25.535Z,0.00
2018-05-02T08:55:25.468Z,0.00
2018-05-02T08:56:25.439Z,0.00
2018-05-02T08:57:25.432Z,0.00
2018-05-02T08:58:25.359Z,0.00
2018-05-02T08:59:25.288Z,0.00
2018-05-02T09:00:25.289Z,0.00
2018-05-02T09:01:25.224Z,4.00
2018-05-02T09:02:25.168Z,0.00
2018-05-02T09:03:25.125Z,4.00
2018-05-02T09:04:25.102Z,0.00
2018-05-02T09:05:25.060Z,4.00
2018-05-02T09:06:25.010Z,4.00
2018-05-02T09:07:24.931Z,8.00
2018-05-02T09:08:24.932Z,4.00
2018-05-02T09:09:24.856Z,8.00
2018-05-02T09:10:24.811Z,8.00
2018-05-02T09:11:24.754Z,12.00
2018-05-02T09:12:24.730Z,16.00
2018-05-02T09:13:24.683Z,20.00
2018-05-02T09:14:24.627Z,24.00
2018-05-02T09:15:24.589Z,32.00
2018-05-02T09:16:24.526Z,40.00
2018-05-02T09:17:24.484Z,44.00
2018-05-02T09:18:24.471Z,56.00
2018-05-02T09:19:24.427Z,64.00
2018-05-02T09:20:24.372Z,72.00
2018-05-02T09:21:24.325Z,84.00
2018-05-02T09:22:24.275Z,100.00
2018-05-02T09:23:24.256Z,112.00
2018-05-02T09:24:24.185Z,128.00
2018-05-02T09:25:24.141Z,148.00
2018-05-02T09:26:24.088Z,160.00
2018-05-02T09:27:24.053Z,184.00
2018-05-02T09:28:24.020Z,208.00
2018-05-02T09:29:23.967Z,232.00
2018-05-02T09:30:23.928Z,256.00
2018-05-02T09:31:23.891Z,284.00
2018-05-02T09:32:23.822Z,316.00
2018-05-02T09:33:23.796Z,340.00
2018-05-02T09:34:23.738Z,380.00
2018-05-02T09:35:23.712Z,428.00
2018-05-02T09:36:23.636Z,472.00
2018-05-02T09:37:23.604Z,524.00
2018-05-02T09:38:23.553Z,576.00
2018-05-02T09:39:23.500Z,628.00
2018-05-02T09:40:23.470Z,684.00
2018-05-02T09:41:23.451Z,744.00
2018-05-02T09:42:23.366Z,800.00
2018-05-02T09:43:23.336Z,860.00
2018-05-02T09:44:23.322Z,928.00
2018-05-02T09:45:23.258Z,996.00
2018-05-02T09:46:23.202Z,1064.00
2018-05-02T09:47:23.143Z,1156.00
2018-05-02T09:48:23.125Z,1364.00
2018-05-02T09:49:23.093Z,1904.00
2018-05-02T09:50:23.036Z,2812.00
2018-05-02T09:51:22.964Z,2928.00
2018-05-02T09:52:22.919Z,3144.00
2018-05-02T09:53:22.925Z,5964.00
2018-05-02T09:54:22.831Z,8312.00
2018-05-02T09:55:22.799Z,8268.00
2018-05-02T09:56:22.756Z,6964.00
2018-05-02T09:57:22.713Z,7248.00
2018-05-02T09:58:22.664Z,7020.00
2018-05-02T09:59:22.630Z,5256.00
2018-05-02T10:00:22.589Z,5020.00
2018-05-02T10:01:22.523Z,8252.00
2018-05-02T10:02:22.486Z,8140.00
2018-05-02T10:03:22.448Z,3908.00
2018-05-02T10:04:22.459Z,3612.00
2018-05-02T10:05:22.369Z,4264.00
2018-05-02T10:06:22.302Z,5060.00
2018-05-02T10:07:22.278Z,4524.00
2018-05-02T10:08:22.258Z,3400.00
2018-05-02T10:09:22.184Z,5248.00
2018-05-02T10:10:22.159Z,9304.00
2018-05-02T10:11:22.114Z,12224.00
2018-05-02T10:12:22.071Z,14432.00
2018-05-02T10:13:22.022Z,11664.00
2018-05-02T10:14:21.981Z,6764.00
2018-05-02T10:15:21.929Z,4288.00
2018-05-02T10:16:21.899Z,4004.00
2018-05-02T10:17:21.841Z,4976.00
2018-05-02T10:18:21.864Z,6516.00
2018-05-02T10:19:21.765Z,11812.00
2018-05-02T10:20:21.738Z,11656.00
2018-05-02T10:21:21.670Z,6632.00
2018-05-02T10:22:21.661Z,5700.00
2018-05-02T10:23:21.580Z,6440.00
2018-05-02T10:24:21.534Z,5484.00
2018-05-02T10:25:21.502Z,5368.00
2018-05-02T10:26:21.528Z,5168.00
2018-05-02T10:27:21.430Z,5792.00
2018-05-02T10:28:21.359Z,6020.00
2018-05-02T10:29:21.337Z,7004.00
2018-05-02T10:30:21.295Z,7148.00
2018-05-02T10:31:21.233Z,9728.00
2018-05-02T10:32:21.206Z,18464.00
2018-05-02T10:33:21.174Z,29344.00
2018-05-02T10:34:21.118Z,32128.00
2018-05-02T10:35:21.081Z,33664.00
2018-05-02T10:36:21.066Z,33248.00
2018-05-02T10:37:21.024Z,32416.00
2018-05-02T10:38:20.940Z,32480.00
2018-05-02T10:39:20.905Z,32288.00
2018-05-02T10:40:20.898Z,32320.00
2018-05-02T10:41:20.844Z,33152.00
2018-05-02T10:42:20.819Z,34112.00
2018-05-02T10:43:20.774Z,36128.00
2018-05-02T10:44:20.700Z,38048.00
2018-05-02T10:45:20.713Z,38240.00
2018-05-02T10:46:20.672Z,37920.00
2018-05-02T10:47:20.594Z,38432.00
2018-05-02T10:48:20.558Z,39776.00
2018-05-02T10:49:20.538Z,40672.00
2018-05-02T10:50:20.521Z,42336.00
2018-05-02T10:51:20.504Z,42304.00
2018-05-02T10:52:20.456Z,40832.00
2018-05-02T10:53:20.401Z,41088.00
2018-05-02T10:54:20.374Z,41632.00
2018-05-02T10:55:20.336Z,41504.00
2018-05-02T10:56:20.319Z,40512.00
2018-05-02T10:57:20.277Z,41888.00
2018-05-02T10:58:20.239Z,43872.00
2018-05-02T10:59:20.207Z,44928.00
2018-05-02T11:00:20.145Z,44128.00
2018-05-02T11:01:20.125Z,42816.00
2018-05-02T11:02:20.083Z,38624.00
2018-05-02T11:03:20.042Z,19360.00
2018-05-02T11:04:20.019Z,8392.00
2018-05-02T11:05:19.988Z,8172.00
2018-05-02T11:06:19.984Z,7964.00
2018-05-02T11:07:19.911Z,7808.00
2018-05-02T11:08:19.927Z,7748.00
2018-05-02T11:09:19.840Z,7684.00
2018-05-02T11:10:19.791Z,7648.00
2018-05-02T11:11:19.769Z,7592.00
2018-05-02T11:12:19.718Z,7468.00
2018-05-02T11:13:19.705Z,7120.00
2018-05-02T11:14:19.678Z,6748.00
2018-05-02T11:15:19.601Z,6464.00
2018-05-02T11:16:19.574Z,6284.00
2018-05-02T11:17:19.522Z,6152.00
2018-05-02T11:18:19.512Z,6056.00
2018-05-02T11:19:19.459Z,5980.00
2018-05-02T11:20:19.409Z,5908.00
2018-05-02T11:21:19.360Z,5852.00
2018-05-02T11:22:19.353Z,5824.00
2018-05-02T11:23:19.283Z,5816.00
2018-05-02T11:24:19.249Z,5768.00
2018-05-02T11:25:19.202Z,5740.00
2018-05-02T11:26:19.182Z,5728.00
2018-05-02T11:27:19.120Z,5724.00
2018-05-02T11:28:19.091Z,5712.00
2018-05-02T11:29:19.060Z,5668.00
2018-05-02T11:30:19.012Z,5640.00
2018-05-02T11:31:18.962Z,5668.00
2018-05-02T11:32:18.947Z,5644.00
2018-05-02T11:33:18.886Z,5656.00
2018-05-02T11:34:18.862Z,5684.00
2018-05-02T11:35:18.797Z,5684.00
2018-05-02T11:36:18.755Z,5668.00
2018-05-02T11:37:18.748Z,5684.00
2018-05-02T11:38:18.685Z,5696.00
2018-05-02T11:39:18.628Z,5684.00
2018-05-02T11:40:18.620Z,5676.00
2018-05-02T11:41:18.554Z,5672.00
2018-05-02T11:42:18.519Z,5688.00
2018-05-02T11:43:18.467Z,5712.00
2018-05-02T11:44:18.442Z,5716.00
2018-05-02T11:45:18.379Z,5700.00
2018-05-02T11:46:18.363Z,5700.00
2018-05-02T11:47:18.327Z,5712.00
2018-05-02T11:48:18.260Z,5740.00
2018-05-02T11:49:18.204Z,5752.00
2018-05-02T11:50:18.173Z,5736.00
2018-05-02T11:51:18.147Z,5728.00
2018-05-02T11:52:18.106Z,5740.00
2018-05-02T11:53:18.030Z,5744.00
2018-05-02T11:54:18.021Z,5724.00
2018-05-02T11:55:17.980Z,5712.00
2018-05-02T11:56:17.932Z,5732.00
2018-05-02T11:57:17.903Z,5692.00
2018-05-02T11:58:17.844Z,5672.00
2018-05-02T11:59:17.807Z,5620.00
2018-05-02T12:00:17.764Z,5616.00
2018-05-02T12:01:17.705Z,5616.00
2018-05-02T12:02:17.682Z,5604.00
2018-05-02T12:03:17.638Z,5620.00
2018-05-02T12:04:17.593Z,5624.00
2018-05-02T12:05:17.540Z,5556.00
2018-05-02T12:06:17.487Z,5644.00
2018-05-02T12:07:17.459Z,5632.00
2018-05-02T12:08:17.431Z,5576.00
2018-05-02T12:09:17.401Z,5548.00
2018-05-02T12:10:17.319Z,5492.00
2018-05-02T12:11:17.295Z,5504.00
2018-05-02T12:12:17.235Z,5488.00
2018-05-02T12:13:17.189Z,5476.00
2018-05-02T12:14:17.201Z,5464.00
2018-05-02T12:15:17.130Z,5440.00
2018-05-02T12:16:17.105Z,5460.00
2018-05-02T12:17:17.038Z,5456.00
2018-05-02T12:18:17.011Z,5444.00
2018-05-02T12:19:16.995Z,5412.00
2018-05-02T12:20:16.905Z,5392.00
2018-05-02T12:21:16.861Z,5388.00
2018-05-02T12:22:16.839Z,5316.00
2018-05-02T12:23:16.778Z,5240.00
2018-05-02T12:24:16.758Z,5256.00
2018-05-02T12:25:16.707Z,5272.00
2018-05-02T12:26:16.665Z,5272.00
2018-05-02T12:27:16.604Z,5276.00
2018-05-02T12:28:16.577Z,5248.00
2018-05-02T12:29:16.548Z,5240.00
2018-05-02T12:30:16.518Z,5264.00
2018-05-02T12:31:16.435Z,5264.00
2018-05-02T12:32:16.413Z,5296.00
2018-05-02T12:33:16.360Z,5316.00
2018-05-02T12:34:16.319Z,5244.00
2018-05-02T12:35:16.277Z,5236.00
2018-05-02T12:36:16.248Z,5212.00
2018-05-02T12:37:16.204Z,5132.00
2018-05-02T12:38:16.156Z,5108.00
2018-05-02T12:39:16.128Z,5108.00
2018-05-02T12:40:16.072Z,5092.00
2018-05-02T12:41:16.029Z,5096.00
2018-05-02T12:42:15.992Z,5004.00
2018-05-02T12:43:15.960Z,4992.00
2018-05-02T12:44:15.898Z,5028.00
2018-05-02T12:45:15.874Z,5064.00
2018-05-02T12:46:15.818Z,5068.00
2018-05-02T12:47:15.777Z,5044.00
2018-05-02T12:48:15.749Z,5048.00
2018-05-02T12:49:15.714Z,5060.00
2018-05-02T12:50:15.649Z,4960.00
2018-05-02T12:51:15.618Z,4984.00
2018-05-02T12:52:15.591Z,5004.00
2018-05-02T12:53:15.529Z,4992.00
2018-05-02T12:54:15.470Z,4996.00
2018-05-02T12:55:15.457Z,4984.00
2018-05-02T12:56:15.452Z,4876.00